sensor_id;sensor_type;location;lat;lon;timestamp;P1;durP1;ratioP1;P2;durP2;ratioP2
3000;SDS011;1510;51.072;6.678;2023-04-25T00:01:00;470.33;;;450.27;;
3000;SDS011;1510;51.072;6.678;2023-04-25T00:03:28;495.40;;;471.63;;
3000;SDS011;1510;51.072;6.678;2023-04-25T00:05:55;508.90;;;486.30;;
3000;SDS011;1510;51.072;6.678;2023-04-25T00:08:22;560.70;;;532.23;;
3000;SDS011;1510;51.072;6.678;2023-04-25T00:10:50;630.40;;;594.90;;
3000;SDS011;1510;51.072;6.678;2023-04-25T00:13:17;604.30;;;573.70;;
3000;SDS011;1510;51.072;6.678;2023-04-25T00:15:45;690.63;;;649.27;;
3000;SDS011;1510;51.072;6.678;2023-04-25T00:18:13;670.67;;;633.27;;
3000;SDS011;1510;51.072;6.678;2023-04-25T00:20:40;704.13;;;661.70;;
3000;SDS011;1510;51.072;6.678;2023-04-25T00:23:11;732.57;;;687.27;;
3000;SDS011;1510;51.072;6.678;2023-04-25T00:25:42;729.27;;;686.00;;
3000;SDS011;1510;51.072;6.678;2023-04-25T00:28:09;733.37;;;691.70;;
3000;SDS011;1510;51.072;6.678;2023-04-25T00:30:36;738.20;;;695.80;;
3000;SDS011;1510;51.072;6.678;2023-04-25T00:33:04;741.37;;;697.30;;
3000;SDS011;1510;51.072;6.678;2023-04-25T00:35:31;733.97;;;692.47;;
3000;SDS011;1510;51.072;6.678;2023-04-25T00:37:58;662.77;;;628.87;;
3000;SDS011;1510;51.072;6.678;2023-04-25T00:40:26;637.07;;;605.30;;
3000;SDS011;1510;51.072;6.678;2023-04-25T00:42:53;603.73;;;573.37;;
3000;SDS011;1510;51.072;6.678;2023-04-25T00:45:20;595.90;;;564.00;;
3000;SDS011;1510;51.072;6.678;2023-04-25T00:47:47;581.43;;;550.27;;
3000;SDS011;1510;51.072;6.678;2023-04-25T00:50:17;562.93;;;534.83;;
3000;SDS011;1510;51.072;6.678;2023-04-25T00:52:44;566.83;;;537.90;;
3000;SDS011;1510;51.072;6.678;2023-04-25T00:55:12;570.77;;;540.57;;
3000;SDS011;1510;51.072;6.678;2023-04-25T00:57:38;565.87;;;536.37;;
3000;SDS011;1510;51.072;6.678;2023-04-25T01:00:07;537.10;;;507.67;;
3000;SDS011;1510;51.072;6.678;2023-04-25T01:02:36;511.13;;;484.23;;
3000;SDS011;1510;51.072;6.678;2023-04-25T01:05:03;457.80;;;436.60;;
3000;SDS011;1510;51.072;6.678;2023-04-25T01:07:32;471.17;;;448.67;;
3000;SDS011;1510;51.072;6.678;2023-04-25T01:10:00;480.30;;;456.20;;
3000;SDS011;1510;51.072;6.678;2023-04-25T01:12:28;476.60;;;452.47;;
3000;SDS011;1510;51.072;6.678;2023-04-25T01:14:55;469.27;;;445.87;;
3000;SDS011;1510;51.072;6.678;2023-04-25T01:17:22;431.90;;;412.60;;
3000;SDS011;1510;51.072;6.678;2023-04-25T01:19:49;468.23;;;446.17;;
3000;SDS011;1510;51.072;6.678;2023-04-25T01:22:17;495.07;;;470.17;;
3000;SDS011;1510;51.072;6.678;2023-04-25T01:24:46;523.60;;;495.27;;
3000;SDS011;1510;51.072;6.678;2023-04-25T01:27:13;518.33;;;489.80;;
3000;SDS011;1510;51.072;6.678;2023-04-25T01:29:40;514.53;;;487.10;;
3000;SDS011;1510;51.072;6.678;2023-04-25T01:32:07;518.70;;;489.87;;
3000;SDS011;1510;51.072;6.678;2023-04-25T01:34:35;507.97;;;479.50;;
3000;SDS011;1510;51.072;6.678;2023-04-25T01:37:02;508.20;;;481.03;;
3000;SDS011;1510;51.072;6.678;2023-04-25T01:39:30;483.97;;;457.37;;
3000;SDS011;1510;51.072;6.678;2023-04-25T01:41:58;490.23;;;463.03;;
3000;SDS011;1510;51.072;6.678;2023-04-25T01:44:26;456.47;;;432.40;;
3000;SDS011;1510;51.072;6.678;2023-04-25T01:46:54;455.40;;;431.40;;
3000;SDS011;1510;51.072;6.678;2023-04-25T01:49:21;433.60;;;411.60;;
3000;SDS011;1510;51.072;6.678;2023-04-25T01:51:48;431.77;;;409.80;;
3000;SDS011;1510;51.072;6.678;2023-04-25T01:54:15;416.87;;;396.20;;
3000;SDS011;1510;51.072;6.678;2023-04-25T01:56:49;418.50;;;398.33;;
3000;SDS011;1510;51.072;6.678;2023-04-25T01:59:18;428.13;;;407.13;;
3000;SDS011;1510;51.072;6.678;2023-04-25T02:01:46;417.80;;;397.80;;
3000;SDS011;1510;51.072;6.678;2023-04-25T02:04:13;395.63;;;377.23;;
3000;SDS011;1510;51.072;6.678;2023-04-25T02:06:40;394.33;;;376.17;;
3000;SDS011;1510;51.072;6.678;2023-04-25T02:09:07;387.10;;;369.33;;
3000;SDS011;1510;51.072;6.678;2023-04-25T02:11:34;373.10;;;355.40;;
3000;SDS011;1510;51.072;6.678;2023-04-25T02:14:04;363.33;;;347.27;;
3000;SDS011;1510;51.072;6.678;2023-04-25T02:16:31;365.77;;;349.80;;
3000;SDS011;1510;51.072;6.678;2023-04-25T02:19:00;375.47;;;358.67;;
3000;SDS011;1510;51.072;6.678;2023-04-25T02:21:27;382.33;;;364.57;;
3000;SDS011;1510;51.072;6.678;2023-04-25T02:23:55;372.30;;;355.73;;
3000;SDS011;1510;51.072;6.678;2023-04-25T02:26:22;366.00;;;350.00;;
3000;SDS011;1510;51.072;6.678;2023-04-25T02:28:49;388.70;;;370.60;;
3000;SDS011;1510;51.072;6.678;2023-04-25T02:31:18;412.40;;;393.23;;
3000;SDS011;1510;51.072;6.678;2023-04-25T02:33:45;406.00;;;387.20;;
3000;SDS011;1510;51.072;6.678;2023-04-25T02:36:14;418.03;;;399.03;;
3000;SDS011;1510;51.072;6.678;2023-04-25T02:38:41;424.73;;;403.37;;
3000;SDS011;1510;51.072;6.678;2023-04-25T02:41:08;445.30;;;423.00;;
3000;SDS011;1510;51.072;6.678;2023-04-25T02:43:35;455.17;;;431.50;;
3000;SDS011;1510;51.072;6.678;2023-04-25T02:46:04;453.80;;;431.00;;
3000;SDS011;1510;51.072;6.678;2023-04-25T02:48:33;454.77;;;431.10;;
3000;SDS011;1510;51.072;6.678;2023-04-25T02:51:00;471.27;;;445.03;;
3000;SDS011;1510;51.072;6.678;2023-04-25T02:53:30;460.17;;;436.83;;
3000;SDS011;1510;51.072;6.678;2023-04-25T02:56:01;456.37;;;432.90;;
3000;SDS011;1510;51.072;6.678;2023-04-25T02:58:28;478.20;;;451.90;;
3000;SDS011;1510;51.072;6.678;2023-04-25T03:00:54;473.43;;;446.60;;
3000;SDS011;1510;51.072;6.678;2023-04-25T03:03:21;465.17;;;440.40;;
3000;SDS011;1510;51.072;6.678;2023-04-25T03:05:50;446.23;;;424.33;;
3000;SDS011;1510;51.072;6.678;2023-04-25T03:08:17;467.43;;;442.37;;
3000;SDS011;1510;51.072;6.678;2023-04-25T03:10:47;478.13;;;451.57;;
3000;SDS011;1510;51.072;6.678;2023-04-25T03:13:15;477.43;;;450.90;;
3000;SDS011;1510;51.072;6.678;2023-04-25T03:15:43;481.37;;;454.13;;
3000;SDS011;1510;51.072;6.678;2023-04-25T03:18:12;469.53;;;444.73;;
3000;SDS011;1510;51.072;6.678;2023-04-25T03:20:39;457.50;;;433.83;;
3000;SDS011;1510;51.072;6.678;2023-04-25T03:23:08;459.40;;;433.77;;
3000;SDS011;1510;51.072;6.678;2023-04-25T03:25:36;470.83;;;443.10;;
3000;SDS011;1510;51.072;6.678;2023-04-25T03:28:03;450.70;;;426.87;;
3000;SDS011;1510;51.072;6.678;2023-04-25T03:30:30;440.37;;;417.70;;
3000;SDS011;1510;51.072;6.678;2023-04-25T03:32:57;437.60;;;414.60;;
3000;SDS011;1510;51.072;6.678;2023-04-25T03:35:25;430.13;;;407.67;;
3000;SDS011;1510;51.072;6.678;2023-04-25T03:37:52;410.90;;;390.90;;
3000;SDS011;1510;51.072;6.678;2023-04-25T03:40:21;411.83;;;390.80;;
3000;SDS011;1510;51.072;6.678;2023-04-25T03:42:48;400.80;;;381.50;;
3000;SDS011;1510;51.072;6.678;2023-04-25T03:45:15;411.47;;;389.83;;
3000;SDS011;1510;51.072;6.678;2023-04-25T03:47:42;422.87;;;401.00;;
3000;SDS011;1510;51.072;6.678;2023-04-25T03:50:09;424.97;;;404.40;;
3000;SDS011;1510;51.072;6.678;2023-04-25T03:52:36;419.53;;;399.27;;
3000;SDS011;1510;51.072;6.678;2023-04-25T03:55:03;436.53;;;413.73;;
3000;SDS011;1510;51.072;6.678;2023-04-25T03:57:33;449.87;;;425.60;;
3000;SDS011;1510;51.072;6.678;2023-04-25T03:59:59;440.27;;;418.07;;
3000;SDS011;1510;51.072;6.678;2023-04-25T04:02:35;445.20;;;422.00;;
3000;SDS011;1510;51.072;6.678;2023-04-25T04:05:05;409.20;;;389.90;;
3000;SDS011;1510;51.072;6.678;2023-04-25T04:07:33;407.80;;;387.90;;
3000;SDS011;1510;51.072;6.678;2023-04-25T04:10:04;418.90;;;397.77;;
3000;SDS011;1510;51.072;6.678;2023-04-25T04:12:35;428.30;;;405.30;;
3000;SDS011;1510;51.072;6.678;2023-04-25T04:15:04;422.57;;;400.77;;
3000;SDS011;1510;51.072;6.678;2023-04-25T04:17:31;432.53;;;409.67;;
3000;SDS011;1510;51.072;6.678;2023-04-25T04:19:59;415.37;;;394.17;;
3000;SDS011;1510;51.072;6.678;2023-04-25T04:22:26;445.67;;;421.90;;
3000;SDS011;1510;51.072;6.678;2023-04-25T04:24:52;447.37;;;422.67;;
3000;SDS011;1510;51.072;6.678;2023-04-25T04:27:20;449.77;;;425.73;;
3000;SDS011;1510;51.072;6.678;2023-04-25T04:29:51;451.60;;;427.30;;
3000;SDS011;1510;51.072;6.678;2023-04-25T04:32:18;442.20;;;420.33;;
3000;SDS011;1510;51.072;6.678;2023-04-25T04:34:45;448.47;;;425.57;;
3000;SDS011;1510;51.072;6.678;2023-04-25T04:37:13;459.47;;;436.20;;
3000;SDS011;1510;51.072;6.678;2023-04-25T04:39:40;491.97;;;465.17;;
3000;SDS011;1510;51.072;6.678;2023-04-25T04:42:07;514.43;;;485.97;;
3000;SDS011;1510;51.072;6.678;2023-04-25T04:44:36;560.03;;;526.40;;
3000;SDS011;1510;51.072;6.678;2023-04-25T04:47:05;578.13;;;544.13;;
3000;SDS011;1510;51.072;6.678;2023-04-25T04:49:32;599.87;;;563.47;;
3000;SDS011;1510;51.072;6.678;2023-04-25T04:51:58;597.83;;;564.23;;
3000;SDS011;1510;51.072;6.678;2023-04-25T04:54:26;619.53;;;583.87;;
3000;SDS011;1510;51.072;6.678;2023-04-25T04:56:53;599.87;;;566.37;;
3000;SDS011;1510;51.072;6.678;2023-04-25T04:59:20;590.43;;;554.47;;
3000;SDS011;1510;51.072;6.678;2023-04-25T05:01:47;588.57;;;552.07;;
3000;SDS011;1510;51.072;6.678;2023-04-25T05:04:15;562.70;;;528.90;;
3000;SDS011;1510;51.072;6.678;2023-04-25T05:06:42;558.13;;;523.63;;
3000;SDS011;1510;51.072;6.678;2023-04-25T05:09:10;544.87;;;511.37;;
3000;SDS011;1510;51.072;6.678;2023-04-25T05:11:37;525.70;;;492.90;;
3000;SDS011;1510;51.072;6.678;2023-04-25T05:14:04;517.13;;;485.90;;
3000;SDS011;1510;51.072;6.678;2023-04-25T05:16:31;474.40;;;445.90;;
3000;SDS011;1510;51.072;6.678;2023-04-25T05:18:58;427.00;;;404.13;;
3000;SDS011;1510;51.072;6.678;2023-04-25T05:21:26;423.30;;;401.17;;
3000;SDS011;1510;51.072;6.678;2023-04-25T05:23:53;399.30;;;378.60;;
3000;SDS011;1510;51.072;6.678;2023-04-25T05:26:20;379.03;;;362.23;;
3000;SDS011;1510;51.072;6.678;2023-04-25T05:28:47;284.73;;;273.43;;
3000;SDS011;1510;51.072;6.678;2023-04-25T05:31:16;250.10;;;239.97;;
3000;SDS011;1510;51.072;6.678;2023-04-25T05:33:43;126.47;;;120.63;;
3000;SDS011;1510;51.072;6.678;2023-04-25T05:36:10;89.63;;;84.77;;
3000;SDS011;1510;51.072;6.678;2023-04-25T05:38:38;63.80;;;59.73;;
3000;SDS011;1510;51.072;6.678;2023-04-25T05:41:06;23.93;;;21.33;;
3000;SDS011;1510;51.072;6.678;2023-04-25T05:43:33;28.43;;;26.40;;
3000;SDS011;1510;51.072;6.678;2023-04-25T05:46:00;22.10;;;20.50;;
3000;SDS011;1510;51.072;6.678;2023-04-25T05:48:27;18.63;;;17.10;;
3000;SDS011;1510;51.072;6.678;2023-04-25T05:50:55;21.80;;;14.40;;
3000;SDS011;1510;51.072;6.678;2023-04-25T05:53:22;25.07;;;13.60;;
3000;SDS011;1510;51.072;6.678;2023-04-25T05:55:50;17.60;;;15.70;;
3000;SDS011;1510;51.072;6.678;2023-04-25T05:58:17;19.07;;;15.90;;
3000;SDS011;1510;51.072;6.678;2023-04-25T06:00:43;23.70;;;7.13;;
3000;SDS011;1510;51.072;6.678;2023-04-25T06:03:11;24.47;;;7.17;;
3000;SDS011;1510;51.072;6.678;2023-04-25T06:05:39;14.03;;;6.83;;
3000;SDS011;1510;51.072;6.678;2023-04-25T06:08:08;14.33;;;5.87;;
3000;SDS011;1510;51.072;6.678;2023-04-25T06:10:35;15.53;;;5.53;;
3000;SDS011;1510;51.072;6.678;2023-04-25T06:13:04;20.30;;;4.33;;
3000;SDS011;1510;51.072;6.678;2023-04-25T06:15:31;22.63;;;6.50;;
3000;SDS011;1510;51.072;6.678;2023-04-25T06:17:58;14.00;;;4.43;;
3000;SDS011;1510;51.072;6.678;2023-04-25T06:20:25;19.13;;;5.10;;
3000;SDS011;1510;51.072;6.678;2023-04-25T06:22:52;11.73;;;5.50;;
3000;SDS011;1510;51.072;6.678;2023-04-25T06:25:19;16.47;;;5.13;;
3000;SDS011;1510;51.072;6.678;2023-04-25T06:27:46;18.47;;;7.00;;
3000;SDS011;1510;51.072;6.678;2023-04-25T06:30:14;7.23;;;3.50;;
3000;SDS011;1510;51.072;6.678;2023-04-25T06:32:43;13.50;;;5.40;;
3000;SDS011;1510;51.072;6.678;2023-04-25T06:35:10;8.73;;;4.37;;
3000;SDS011;1510;51.072;6.678;2023-04-25T06:37:38;10.33;;;5.20;;
3000;SDS011;1510;51.072;6.678;2023-04-25T06:40:06;13.43;;;4.43;;
3000;SDS011;1510;51.072;6.678;2023-04-25T06:42:34;17.03;;;6.00;;
3000;SDS011;1510;51.072;6.678;2023-04-25T06:45:01;13.10;;;5.20;;
3000;SDS011;1510;51.072;6.678;2023-04-25T06:47:29;9.93;;;3.07;;
3000;SDS011;1510;51.072;6.678;2023-04-25T06:49:56;7.10;;;3.50;;
3000;SDS011;1510;51.072;6.678;2023-04-25T06:52:23;8.77;;;3.17;;
3000;SDS011;1510;51.072;6.678;2023-04-25T06:54:50;6.30;;;3.30;;
3000;SDS011;1510;51.072;6.678;2023-04-25T06:57:16;12.47;;;4.00;;
3000;SDS011;1510;51.072;6.678;2023-04-25T06:59:43;8.77;;;2.60;;
3000;SDS011;1510;51.072;6.678;2023-04-25T07:02:10;8.60;;;4.53;;
3000;SDS011;1510;51.072;6.678;2023-04-25T07:04:39;22.63;;;4.80;;
3000;SDS011;1510;51.072;6.678;2023-04-25T07:07:06;18.93;;;5.17;;
3000;SDS011;1510;51.072;6.678;2023-04-25T07:09:32;14.33;;;4.20;;
3000;SDS011;1510;51.072;6.678;2023-04-25T07:11:59;15.33;;;4.03;;
3000;SDS011;1510;51.072;6.678;2023-04-25T07:14:27;5.67;;;2.67;;
3000;SDS011;1510;51.072;6.678;2023-04-25T07:16:54;8.00;;;3.27;;
3000;SDS011;1510;51.072;6.678;2023-04-25T07:19:22;25.00;;;5.93;;
3000;SDS011;1510;51.072;6.678;2023-04-25T07:21:52;10.20;;;4.43;;
3000;SDS011;1510;51.072;6.678;2023-04-25T07:24:20;11.40;;;4.37;;
3000;SDS011;1510;51.072;6.678;2023-04-25T07:26:49;12.50;;;3.40;;
3000;SDS011;1510;51.072;6.678;2023-04-25T07:29:18;10.23;;;3.27;;
3000;SDS011;1510;51.072;6.678;2023-04-25T07:31:48;7.77;;;2.67;;
3000;SDS011;1510;51.072;6.678;2023-04-25T07:34:15;16.90;;;3.80;;
3000;SDS011;1510;51.072;6.678;2023-04-25T07:36:43;8.57;;;2.70;;
3000;SDS011;1510;51.072;6.678;2023-04-25T07:39:11;13.17;;;4.23;;
3000;SDS011;1510;51.072;6.678;2023-04-25T07:41:38;13.87;;;4.20;;
3000;SDS011;1510;51.072;6.678;2023-04-25T07:44:05;12.17;;;3.90;;
3000;SDS011;1510;51.072;6.678;2023-04-25T07:46:32;11.33;;;3.80;;
3000;SDS011;1510;51.072;6.678;2023-04-25T07:48:59;10.73;;;3.20;;
3000;SDS011;1510;51.072;6.678;2023-04-25T07:51:26;6.37;;;2.07;;
3000;SDS011;1510;51.072;6.678;2023-04-25T07:53:59;10.30;;;2.70;;
3000;SDS011;1510;51.072;6.678;2023-04-25T07:56:27;11.23;;;2.87;;
3000;SDS011;1510;51.072;6.678;2023-04-25T07:58:54;7.10;;;3.10;;
3000;SDS011;1510;51.072;6.678;2023-04-25T08:01:21;12.63;;;3.23;;
3000;SDS011;1510;51.072;6.678;2023-04-25T08:03:48;7.83;;;3.30;;
3000;SDS011;1510;51.072;6.678;2023-04-25T08:06:15;7.83;;;3.03;;
3000;SDS011;1510;51.072;6.678;2023-04-25T08:08:42;6.57;;;2.40;;
3000;SDS011;1510;51.072;6.678;2023-04-25T08:11:11;18.20;;;3.97;;
3000;SDS011;1510;51.072;6.678;2023-04-25T08:13:39;12.33;;;3.43;;
3000;SDS011;1510;51.072;6.678;2023-04-25T08:16:06;8.50;;;2.60;;
3000;SDS011;1510;51.072;6.678;2023-04-25T08:18:33;10.23;;;2.30;;
3000;SDS011;1510;51.072;6.678;2023-04-25T08:21:00;24.47;;;3.43;;
3000;SDS011;1510;51.072;6.678;2023-04-25T08:23:27;8.30;;;2.87;;
3000;SDS011;1510;51.072;6.678;2023-04-25T08:25:54;7.90;;;2.37;;
3000;SDS011;1510;51.072;6.678;2023-04-25T08:28:20;6.47;;;2.63;;
3000;SDS011;1510;51.072;6.678;2023-04-25T08:30:49;16.13;;;3.27;;
3000;SDS011;1510;51.072;6.678;2023-04-25T08:33:16;6.70;;;2.03;;
3000;SDS011;1510;51.072;6.678;2023-04-25T08:35:43;8.40;;;2.40;;
3000;SDS011;1510;51.072;6.678;2023-04-25T08:38:11;6.27;;;2.07;;
3000;SDS011;1510;51.072;6.678;2023-04-25T08:40:38;5.87;;;1.97;;
3000;SDS011;1510;51.072;6.678;2023-04-25T08:43:06;11.00;;;2.50;;
3000;SDS011;1510;51.072;6.678;2023-04-25T08:45:36;6.30;;;2.13;;
3000;SDS011;1510;51.072;6.678;2023-04-25T08:48:08;14.47;;;3.23;;
3000;SDS011;1510;51.072;6.678;2023-04-25T08:50:38;8.40;;;2.77;;
3000;SDS011;1510;51.072;6.678;2023-04-25T08:53:08;4.90;;;1.53;;
3000;SDS011;1510;51.072;6.678;2023-04-25T08:55:38;10.00;;;3.03;;
3000;SDS011;1510;51.072;6.678;2023-04-25T08:58:07;9.60;;;3.20;;
3000;SDS011;1510;51.072;6.678;2023-04-25T09:00:36;7.47;;;1.77;;
3000;SDS011;1510;51.072;6.678;2023-04-25T09:03:04;8.03;;;2.40;;
3000;SDS011;1510;51.072;6.678;2023-04-25T09:05:33;10.23;;;2.67;;
3000;SDS011;1510;51.072;6.678;2023-04-25T09:08:01;6.27;;;2.03;;
3000;SDS011;1510;51.072;6.678;2023-04-25T09:10:28;5.53;;;1.70;;
3000;SDS011;1510;51.072;6.678;2023-04-25T09:13:02;9.70;;;2.33;;
3000;SDS011;1510;51.072;6.678;2023-04-25T09:15:30;13.63;;;3.00;;
3000;SDS011;1510;51.072;6.678;2023-04-25T09:18:07;6.50;;;2.60;;
3000;SDS011;1510;51.072;6.678;2023-04-25T09:23:16;8.40;;;1.70;;
3000;SDS011;1510;51.072;6.678;2023-04-25T09:25:45;18.53;;;3.87;;
3000;SDS011;1510;51.072;6.678;2023-04-25T09:28:15;13.93;;;2.47;;
3000;SDS011;1510;51.072;6.678;2023-04-25T09:30:42;5.60;;;1.77;;
3000;SDS011;1510;51.072;6.678;2023-04-25T09:33:12;7.30;;;1.33;;
3000;SDS011;1510;51.072;6.678;2023-04-25T09:35:39;7.30;;;2.87;;
3000;SDS011;1510;51.072;6.678;2023-04-25T09:38:08;10.70;;;2.37;;
3000;SDS011;1510;51.072;6.678;2023-04-25T09:40:41;14.40;;;2.77;;
3000;SDS011;1510;51.072;6.678;2023-04-25T09:43:09;5.20;;;1.57;;
3000;SDS011;1510;51.072;6.678;2023-04-25T09:45:41;8.90;;;2.37;;
3000;SDS011;1510;51.072;6.678;2023-04-25T09:48:11;6.10;;;1.60;;
3000;SDS011;1510;51.072;6.678;2023-04-25T09:50:38;5.70;;;1.67;;
3000;SDS011;1510;51.072;6.678;2023-04-25T09:53:06;4.07;;;1.37;;
3000;SDS011;1510;51.072;6.678;2023-04-25T09:55:35;13.10;;;2.17;;
3000;SDS011;1510;51.072;6.678;2023-04-25T09:58:05;12.00;;;2.27;;
3000;SDS011;1510;51.072;6.678;2023-04-25T10:00:32;9.20;;;2.03;;
3000;SDS011;1510;51.072;6.678;2023-04-25T10:03:00;13.07;;;2.77;;
3000;SDS011;1510;51.072;6.678;2023-04-25T10:05:30;10.80;;;3.10;;
3000;SDS011;1510;51.072;6.678;2023-04-25T10:07:58;5.67;;;1.60;;
3000;SDS011;1510;51.072;6.678;2023-04-25T10:10:29;16.03;;;3.90;;
3000;SDS011;1510;51.072;6.678;2023-04-25T10:13:01;13.83;;;3.80;;
3000;SDS011;1510;51.072;6.678;2023-04-25T10:15:32;6.30;;;2.13;;
3000;SDS011;1510;51.072;6.678;2023-04-25T10:18:02;6.67;;;1.93;;
3000;SDS011;1510;51.072;6.678;2023-04-25T10:20:29;12.33;;;2.27;;
3000;SDS011;1510;51.072;6.678;2023-04-25T10:22:58;3.67;;;0.83;;
3000;SDS011;1510;51.072;6.678;2023-04-25T10:25:33;4.20;;;1.30;;
3000;SDS011;1510;51.072;6.678;2023-04-25T10:28:00;4.37;;;1.53;;
3000;SDS011;1510;51.072;6.678;2023-04-25T10:30:28;6.00;;;1.43;;
3000;SDS011;1510;51.072;6.678;2023-04-25T10:32:55;8.30;;;1.80;;
3000;SDS011;1510;51.072;6.678;2023-04-25T10:35:25;5.80;;;1.63;;
3000;SDS011;1510;51.072;6.678;2023-04-25T10:37:57;11.30;;;2.20;;
3000;SDS011;1510;51.072;6.678;2023-04-25T10:40:25;21.97;;;2.30;;
3000;SDS011;1510;51.072;6.678;2023-04-25T10:42:52;5.10;;;1.43;;
3000;SDS011;1510;51.072;6.678;2023-04-25T10:45:21;9.40;;;1.90;;
3000;SDS011;1510;51.072;6.678;2023-04-25T10:47:49;4.53;;;1.40;;
3000;SDS011;1510;51.072;6.678;2023-04-25T10:50:16;10.00;;;1.50;;
3000;SDS011;1510;51.072;6.678;2023-04-25T10:52:43;4.20;;;1.13;;
3000;SDS011;1510;51.072;6.678;2023-04-25T10:55:10;6.67;;;1.90;;
3000;SDS011;1510;51.072;6.678;2023-04-25T10:57:38;6.43;;;2.73;;
3000;SDS011;1510;51.072;6.678;2023-04-25T11:00:12;6.50;;;1.40;;
3000;SDS011;1510;51.072;6.678;2023-04-25T11:02:41;7.00;;;1.80;;
3000;SDS011;1510;51.072;6.678;2023-04-25T11:05:11;8.50;;;1.53;;
3000;SDS011;1510;51.072;6.678;2023-04-25T11:07:49;6.63;;;1.40;;
3000;SDS011;1510;51.072;6.678;2023-04-25T11:10:18;9.80;;;1.77;;
3000;SDS011;1510;51.072;6.678;2023-04-25T11:12:45;6.77;;;1.77;;
3000;SDS011;1510;51.072;6.678;2023-04-25T11:15:13;5.90;;;2.07;;
3000;SDS011;1510;51.072;6.678;2023-04-25T11:17:40;9.97;;;2.20;;
3000;SDS011;1510;51.072;6.678;2023-04-25T11:20:08;9.13;;;2.00;;
3000;SDS011;1510;51.072;6.678;2023-04-25T11:22:38;5.43;;;1.33;;
3000;SDS011;1510;51.072;6.678;2023-04-25T11:25:07;5.87;;;1.40;;
3000;SDS011;1510;51.072;6.678;2023-04-25T11:27:37;7.43;;;1.20;;
3000;SDS011;1510;51.072;6.678;2023-04-25T11:30:09;7.47;;;1.83;;
3000;SDS011;1510;51.072;6.678;2023-04-25T11:32:39;5.90;;;1.10;;
3000;SDS011;1510;51.072;6.678;2023-04-25T11:35:08;9.20;;;1.50;;
3000;SDS011;1510;51.072;6.678;2023-04-25T11:37:35;9.50;;;1.60;;
3000;SDS011;1510;51.072;6.678;2023-04-25T11:40:04;4.83;;;0.90;;
3000;SDS011;1510;51.072;6.678;2023-04-25T11:42:33;8.10;;;1.90;;
3000;SDS011;1510;51.072;6.678;2023-04-25T11:45:03;7.90;;;1.73;;
3000;SDS011;1510;51.072;6.678;2023-04-25T11:47:32;8.07;;;1.33;;
3000;SDS011;1510;51.072;6.678;2023-04-25T11:49:59;5.90;;;1.60;;
3000;SDS011;1510;51.072;6.678;2023-04-25T11:52:35;9.10;;;1.50;;
3000;SDS011;1510;51.072;6.678;2023-04-25T11:55:05;8.13;;;2.13;;
3000;SDS011;1510;51.072;6.678;2023-04-25T11:57:33;6.27;;;1.70;;
3000;SDS011;1510;51.072;6.678;2023-04-25T12:00:07;5.83;;;1.67;;
3000;SDS011;1510;51.072;6.678;2023-04-25T12:02:36;5.00;;;1.40;;
3000;SDS011;1510;51.072;6.678;2023-04-25T12:05:05;5.07;;;1.60;;
3000;SDS011;1510;51.072;6.678;2023-04-25T12:07:33;5.00;;;1.20;;
3000;SDS011;1510;51.072;6.678;2023-04-25T12:10:05;6.50;;;2.20;;
3000;SDS011;1510;51.072;6.678;2023-04-25T12:12:32;8.70;;;2.50;;
3000;SDS011;1510;51.072;6.678;2023-04-25T12:15:07;5.20;;;1.63;;
3000;SDS011;1510;51.072;6.678;2023-04-25T12:17:36;5.70;;;1.90;;
3000;SDS011;1510;51.072;6.678;2023-04-25T12:20:05;5.57;;;2.10;;
3000;SDS011;1510;51.072;6.678;2023-04-25T12:22:34;6.30;;;1.83;;
3000;SDS011;1510;51.072;6.678;2023-04-25T12:25:01;9.63;;;3.23;;
3000;SDS011;1510;51.072;6.678;2023-04-25T12:27:31;8.57;;;2.17;;
3000;SDS011;1510;51.072;6.678;2023-04-25T12:29:59;8.20;;;2.20;;
3000;SDS011;1510;51.072;6.678;2023-04-25T12:32:26;8.70;;;1.80;;
3000;SDS011;1510;51.072;6.678;2023-04-25T12:34:53;9.07;;;2.03;;
3000;SDS011;1510;51.072;6.678;2023-04-25T12:37:20;7.43;;;2.40;;
3000;SDS011;1510;51.072;6.678;2023-04-25T12:39:47;7.10;;;1.63;;
3000;SDS011;1510;51.072;6.678;2023-04-25T12:42:14;10.63;;;1.93;;
3000;SDS011;1510;51.072;6.678;2023-04-25T12:44:42;6.57;;;1.90;;
3000;SDS011;1510;51.072;6.678;2023-04-25T12:47:09;5.60;;;1.57;;
3000;SDS011;1510;51.072;6.678;2023-04-25T12:49:36;11.50;;;1.60;;
3000;SDS011;1510;51.072;6.678;2023-04-25T12:52:03;7.40;;;1.63;;
3000;SDS011;1510;51.072;6.678;2023-04-25T12:54:30;7.53;;;1.73;;
3000;SDS011;1510;51.072;6.678;2023-04-25T12:56:57;5.90;;;1.70;;
3000;SDS011;1510;51.072;6.678;2023-04-25T12:59:24;5.40;;;1.40;;
3000;SDS011;1510;51.072;6.678;2023-04-25T13:01:53;4.47;;;1.17;;
3000;SDS011;1510;51.072;6.678;2023-04-25T13:04:19;4.83;;;1.43;;
3000;SDS011;1510;51.072;6.678;2023-04-25T13:06:47;7.70;;;1.30;;
3000;SDS011;1510;51.072;6.678;2023-04-25T13:09:13;5.50;;;0.93;;
3000;SDS011;1510;51.072;6.678;2023-04-25T13:11:41;6.30;;;1.10;;
3000;SDS011;1510;51.072;6.678;2023-04-25T13:14:07;5.70;;;1.00;;
3000;SDS011;1510;51.072;6.678;2023-04-25T13:16:34;4.70;;;1.30;;
3000;SDS011;1510;51.072;6.678;2023-04-25T13:19:03;4.47;;;1.20;;
3000;SDS011;1510;51.072;6.678;2023-04-25T13:21:30;5.03;;;1.27;;
3000;SDS011;1510;51.072;6.678;2023-04-25T13:23:58;6.00;;;1.30;;
3000;SDS011;1510;51.072;6.678;2023-04-25T13:26:26;5.07;;;1.27;;
3000;SDS011;1510;51.072;6.678;2023-04-25T13:28:52;5.03;;;1.43;;
3000;SDS011;1510;51.072;6.678;2023-04-25T13:31:22;4.63;;;1.20;;
3000;SDS011;1510;51.072;6.678;2023-04-25T13:33:49;6.10;;;1.13;;
3000;SDS011;1510;51.072;6.678;2023-04-25T13:36:18;4.23;;;0.93;;
3000;SDS011;1510;51.072;6.678;2023-04-25T13:38:46;4.80;;;1.40;;
3000;SDS011;1510;51.072;6.678;2023-04-25T13:41:14;5.93;;;1.33;;
3000;SDS011;1510;51.072;6.678;2023-04-25T13:43:43;4.63;;;0.93;;
3000;SDS011;1510;51.072;6.678;2023-04-25T13:46:11;4.43;;;1.20;;
3000;SDS011;1510;51.072;6.678;2023-04-25T13:48:41;4.20;;;0.90;;
3000;SDS011;1510;51.072;6.678;2023-04-25T13:51:12;4.20;;;1.00;;
3000;SDS011;1510;51.072;6.678;2023-04-25T13:53:41;7.97;;;1.50;;
3000;SDS011;1510;51.072;6.678;2023-04-25T13:56:08;8.90;;;1.60;;
3000;SDS011;1510;51.072;6.678;2023-04-25T13:58:38;8.10;;;1.47;;
3000;SDS011;1510;51.072;6.678;2023-04-25T14:01:05;8.40;;;2.07;;
3000;SDS011;1510;51.072;6.678;2023-04-25T14:03:32;10.57;;;3.03;;
3000;SDS011;1510;51.072;6.678;2023-04-25T14:05:59;4.10;;;1.10;;
3000;SDS011;1510;51.072;6.678;2023-04-25T14:08:26;7.27;;;1.70;;
3000;SDS011;1510;51.072;6.678;2023-04-25T14:10:55;4.10;;;1.33;;
3000;SDS011;1510;51.072;6.678;2023-04-25T14:13:22;5.17;;;1.27;;
3000;SDS011;1510;51.072;6.678;2023-04-25T14:15:50;6.40;;;1.67;;
3000;SDS011;1510;51.072;6.678;2023-04-25T14:18:17;4.77;;;1.50;;
3000;SDS011;1510;51.072;6.678;2023-04-25T14:20:44;8.67;;;2.17;;
3000;SDS011;1510;51.072;6.678;2023-04-25T14:23:16;7.00;;;2.60;;
3000;SDS011;1510;51.072;6.678;2023-04-25T14:25:42;8.00;;;1.90;;
3000;SDS011;1510;51.072;6.678;2023-04-25T14:28:20;5.70;;;1.80;;
3000;SDS011;1510;51.072;6.678;2023-04-25T14:30:46;9.97;;;1.40;;
3000;SDS011;1510;51.072;6.678;2023-04-25T14:33:14;5.10;;;1.60;;
3000;SDS011;1510;51.072;6.678;2023-04-25T14:35:41;5.33;;;1.47;;
3000;SDS011;1510;51.072;6.678;2023-04-25T14:38:09;4.80;;;1.60;;
3000;SDS011;1510;51.072;6.678;2023-04-25T14:40:36;6.80;;;1.57;;
3000;SDS011;1510;51.072;6.678;2023-04-25T14:43:03;5.40;;;1.70;;
3000;SDS011;1510;51.072;6.678;2023-04-25T14:45:31;6.27;;;1.30;;
3000;SDS011;1510;51.072;6.678;2023-04-25T14:47:59;4.00;;;1.00;;
3000;SDS011;1510;51.072;6.678;2023-04-25T14:50:26;7.23;;;1.30;;
3000;SDS011;1510;51.072;6.678;2023-04-25T14:52:53;4.40;;;1.00;;
3000;SDS011;1510;51.072;6.678;2023-04-25T14:55:23;7.70;;;1.53;;
3000;SDS011;1510;51.072;6.678;2023-04-25T14:57:50;15.70;;;1.93;;